sensor_id;sensor_type;location;lat;lon;timestamp;pressure;altitude;pressure_sealevel;temperature;humidity
37202;BME280;37799;52.390;6.136;2023-02-13T00:01:12;103814.53;;;6.61;100.00
37202;BME280;37799;52.390;6.136;2023-02-13T00:03:37;103805.88;;;6.59;100.00
37202;BME280;37799;52.390;6.136;2023-02-13T00:06:03;103809.22;;;6.56;100.00
37202;BME280;37799;52.390;6.136;2023-02-13T00:08:28;103805.78;;;6.56;100.00
37202;BME280;37799;52.390;6.136;2023-02-13T00:10:53;103808.47;;;6.59;100.00
37202;BME280;37799;52.390;6.136;2023-02-13T00:13:19;103803.31;;;6.59;100.00
37202;BME280;37799;52.390;6.136;2023-02-13T00:15:44;103796.41;;;6.58;100.00
37202;BME280;37799;52.390;6.136;2023-02-13T00:18:10;103794.75;;;6.60;100.00
37202;BME280;37799;52.390;6.136;2023-02-13T00:20:35;103799.03;;;6.59;100.00
37202;BME280;37799;52.390;6.136;2023-02-13T00:23:01;103795.69;;;6.62;100.00
37202;BME280;37799;52.390;6.136;2023-02-13T00:25:26;103796.50;;;6.61;100.00
37202;BME280;37799;52.390;6.136;2023-02-13T00:27:52;103784.72;;;6.66;100.00
37202;BME280;37799;52.390;6.136;2023-02-13T00:30:19;103782.97;;;6.65;100.00
37202;BME280;37799;52.390;6.136;2023-02-13T00:32:45;103789.59;;;6.60;100.00
37202;BME280;37799;52.390;6.136;2023-02-13T00:35:10;103778.59;;;6.64;100.00
37202;BME280;37799;52.390;6.136;2023-02-13T00:37:35;103788.03;;;6.63;100.00
37202;BME280;37799;52.390;6.136;2023-02-13T00:40:01;103774.16;;;6.60;100.00
37202;BME280;37799;52.390;6.136;2023-02-13T00:42:26;103783.44;;;6.55;100.00
37202;BME280;37799;52.390;6.136;2023-02-13T00:44:52;103779.91;;;6.53;100.00
37202;BME280;37799;52.390;6.136;2023-02-13T00:47:18;103775.59;;;6.52;100.00
37202;BME280;37799;52.390;6.136;2023-02-13T00:49:44;103778.84;;;6.47;100.00
37202;BME280;37799;52.390;6.136;2023-02-13T00:52:09;103779.56;;;6.43;100.00
37202;BME280;37799;52.390;6.136;2023-02-13T00:54:34;103782.13;;;6.43;100.00
37202;BME280;37799;52.390;6.136;2023-02-13T00:57:00;103775.34;;;6.45;100.00
37202;BME280;37799;52.390;6.136;2023-02-13T00:59:25;103776.38;;;6.50;100.00
37202;BME280;37799;52.390;6.136;2023-02-13T01:01:51;103778.34;;;6.56;100.00
37202;BME280;37799;52.390;6.136;2023-02-13T01:04:16;103777.34;;;6.53;100.00
37202;BME280;37799;52.390;6.136;2023-02-13T01:06:41;103786.78;;;6.52;100.00
37202;BME280;37799;52.390;6.136;2023-02-13T01:09:07;103779.97;;;6.54;100.00
37202;BME280;37799;52.390;6.136;2023-02-13T01:11:32;103782.59;;;6.56;100.00
37202;BME280;37799;52.390;6.136;2023-02-13T01:13:57;103781.63;;;6.52;100.00
37202;BME280;37799;52.390;6.136;2023-02-13T01:16:23;103780.09;;;6.57;100.00
37202;BME280;37799;52.390;6.136;2023-02-13T01:18:48;103782.50;;;6.53;100.00
37202;BME280;37799;52.390;6.136;2023-02-13T01:21:16;103782.66;;;6.57;100.00
37202;BME280;37799;52.390;6.136;2023-02-13T01:23:42;103773.94;;;6.54;100.00
37202;BME280;37799;52.390;6.136;2023-02-13T01:26:16;103783.47;;;6.56;100.00
37202;BME280;37799;52.390;6.136;2023-02-13T01:28:42;103777.34;;;6.53;100.00
37202;BME280;37799;52.390;6.136;2023-02-13T01:31:08;103779.97;;;6.54;100.00
37202;BME280;37799;52.390;6.136;2023-02-13T01:33:33;103778.34;;;6.56;100.00
37202;BME280;37799;52.390;6.136;2023-02-13T01:36:05;103779.97;;;6.54;100.00
37202;BME280;37799;52.390;6.136;2023-02-13T01:38:30;103782.81;;;6.62;100.00
37202;BME280;37799;52.390;6.136;2023-02-13T01:40:55;103784.66;;;6.64;100.00
37202;BME280;37799;52.390;6.136;2023-02-13T01:43:20;103791.16;;;6.55;100.00
37202;BME280;37799;52.390;6.136;2023-02-13T01:45:53;103782.72;;;6.59;100.00
37202;BME280;37799;52.390;6.136;2023-02-13T01:48:25;103780.09;;;6.57;100.00
37202;BME280;37799;52.390;6.136;2023-02-13T01:51:04;103780.75;;;6.52;100.00
37202;BME280;37799;52.390;6.136;2023-02-13T01:53:34;103771.19;;;6.49;100.00
37202;BME280;37799;52.390;6.136;2023-02-13T01:56:07;103772.06;;;6.49;100.00
37202;BME280;37799;52.390;6.136;2023-02-13T01:58:37;103770.97;;;6.43;100.00
37202;BME280;37799;52.390;6.136;2023-02-13T02:01:05;103776.00;;;6.40;100.00
37202;BME280;37799;52.390;6.136;2023-02-13T02:03:36;103770.31;;;6.48;100.00
37202;BME280;37799;52.390;6.136;2023-02-13T02:06:02;103771.94;;;6.46;100.00
37202;BME280;37799;52.390;6.136;2023-02-13T02:08:29;103773.13;;;6.55;100.00
37202;BME280;37799;52.390;6.136;2023-02-13T02:10:59;103777.34;;;6.53;100.00
37202;BME280;37799;52.390;6.136;2023-02-13T02:13:29;103770.59;;;6.56;100.00
37202;BME280;37799;52.390;6.136;2023-02-13T02:15:55;103772.13;;;6.51;100.00
37202;BME280;37799;52.390;6.136;2023-02-13T02:18:22;103770.31;;;6.48;100.00
37202;BME280;37799;52.390;6.136;2023-02-13T02:21:21;103770.09;;;6.42;100.00
37202;BME280;37799;52.390;6.136;2023-02-13T02:24:20;103760.63;;;6.41;100.00
37202;BME280;37799;52.390;6.136;2023-02-13T02:26:58;103763.06;;;6.38;100.00
37202;BME280;37799;52.390;6.136;2023-02-13T02:37:09;103749.03;;;6.30;100.00
37202;BME280;37799;52.390;6.136;2023-02-13T02:51:26;103738.72;;;6.30;100.00
37202;BME280;37799;52.390;6.136;2023-02-13T02:54:08;103733.59;;;6.30;100.00
37202;BME280;37799;52.390;6.136;2023-02-13T02:56:59;103731.06;;;6.32;100.00
37202;BME280;37799;52.390;6.136;2023-02-13T02:59:28;103731.19;;;6.35;100.00
37202;BME280;37799;52.390;6.136;2023-02-13T03:02:14;103734.16;;;6.45;100.00
37202;BME280;37799;52.390;6.136;2023-02-13T03:05:00;103734.06;;;6.42;100.00
37202;BME280;37799;52.390;6.136;2023-02-13T03:07:44;103731.59;;;6.45;100.00
37202;BME280;37799;52.390;6.136;2023-02-13T03:10:15;103740.13;;;6.44;100.00
37202;BME280;37799;52.390;6.136;2023-02-13T03:13:34;103743.28;;;6.37;100.00
37202;BME280;37799;52.390;6.136;2023-02-13T03:16:01;103738.28;;;6.40;100.00
37202;BME280;37799;52.390;6.136;2023-02-13T03:18:50;103745.44;;;6.49;100.00
37202;BME280;37799;52.390;6.136;2023-02-13T03:27:52;103749.84;;;6.52;100.00
37202;BME280;37799;52.390;6.136;2023-02-13T03:30:58;103748.06;;;6.50;100.00
37202;BME280;37799;52.390;6.136;2023-02-13T03:33:35;103738.72;;;6.53;100.00
37202;BME280;37799;52.390;6.136;2023-02-13T03:42:26;103733.53;;;6.51;100.00
37202;BME280;37799;52.390;6.136;2023-02-13T03:44:58;103737.91;;;6.54;100.00
37202;BME280;37799;52.390;6.136;2023-02-13T03:47:46;103749.84;;;6.52;100.00
37202;BME280;37799;52.390;6.136;2023-02-13T03:50:14;103755.78;;;6.50;100.00
37202;BME280;37799;52.390;6.136;2023-02-13T03:55:18;103745.44;;;6.49;100.00
37202;BME280;37799;52.390;6.136;2023-02-13T03:58:09;103749.84;;;6.52;100.00
37202;BME280;37799;52.390;6.136;2023-02-13T04:00:58;103747.28;;;6.52;100.00
37202;BME280;37799;52.390;6.136;2023-02-13T04:03:27;103749.72;;;6.48;100.00
37202;BME280;37799;52.390;6.136;2023-02-13T04:06:03;103753.00;;;6.44;100.00
37202;BME280;37799;52.390;6.136;2023-02-13T04:08:30;103742.59;;;6.41;100.00
37202;BME280;37799;52.390;6.136;2023-02-13T04:11:47;103739.16;;;6.41;100.00
37202;BME280;37799;52.390;6.136;2023-02-13T04:13:59;103746.25;;;6.48;100.00
37202;BME280;37799;52.390;6.136;2023-02-13T04:16:40;103746.22;;;6.46;100.00
37202;BME280;37799;52.390;6.136;2023-02-13T04:19:07;103746.31;;;6.49;100.00
37202;BME280;37799;52.390;6.136;2023-02-13T04:21:35;103737.66;;;6.47;100.00
37202;BME280;37799;52.390;6.136;2023-02-13T04:24:01;103746.41;;;6.51;100.00
37202;BME280;37799;52.390;6.136;2023-02-13T04:26:32;103744.69;;;6.52;100.00
37202;BME280;37799;52.390;6.136;2023-02-13T04:28:59;103742.81;;;6.47;100.00
37202;BME280;37799;52.390;6.136;2023-02-13T04:31:24;103744.03;;;6.57;100.00
37202;BME280;37799;52.390;6.136;2023-02-13T04:33:50;103737.91;;;6.54;100.00
37202;BME280;37799;52.390;6.136;2023-02-13T04:36:15;103724.22;;;6.55;100.00
37202;BME280;37799;52.390;6.136;2023-02-13T04:38:40;103735.38;;;6.55;100.00
37202;BME280;37799;52.390;6.136;2023-02-13T04:41:06;103730.19;;;6.54;100.00
37202;BME280;37799;52.390;6.136;2023-02-13T04:43:31;103724.22;;;6.55;100.00
37202;BME280;37799;52.390;6.136;2023-02-13T04:45:56;103725.13;;;6.57;100.00
37202;BME280;37799;52.390;6.136;2023-02-13T04:48:21;103724.09;;;6.52;100.00
37202;BME280;37799;52.390;6.136;2023-02-13T04:50:47;103725.84;;;6.53;100.00
37202;BME280;37799;52.390;6.136;2023-02-13T04:53:12;103716.31;;;6.50;100.00
37202;BME280;37799;52.390;6.136;2023-02-13T04:55:37;103719.06;;;6.55;100.00
37202;BME280;37799;52.390;6.136;2023-02-13T04:58:03;103721.53;;;6.52;100.00
37202;BME280;37799;52.390;6.136;2023-02-13T05:00:28;103719.84;;;6.52;100.00
37202;BME280;37799;52.390;6.136;2023-02-13T05:02:59;103717.16;;;6.50;100.00
37202;BME280;37799;52.390;6.136;2023-02-13T05:05:25;103715.22;;;6.43;100.00
37202;BME280;37799;52.390;6.136;2023-02-13T05:07:50;103708.41;;;6.45;100.00
37202;BME280;37799;52.390;6.136;2023-02-13T05:10:15;103714.38;;;6.44;100.00
37202;BME280;37799;52.390;6.136;2023-02-13T05:12:41;103711.81;;;6.44;100.00
37202;BME280;37799;52.390;6.136;2023-02-13T05:15:06;103712.97;;;6.53;100.00
37202;BME280;37799;52.390;6.136;2023-02-13T05:17:32;103710.28;;;6.49;100.00
37202;BME280;37799;52.390;6.136;2023-02-13T05:19:57;103715.44;;;6.49;100.00
37202;BME280;37799;52.390;6.136;2023-02-13T05:22:24;103713.66;;;6.48;100.00
37202;BME280;37799;52.390;6.136;2023-02-13T05:25:12;103716.38;;;6.52;100.00
37202;BME280;37799;52.390;6.136;2023-02-13T05:27:37;103717.16;;;6.50;100.00
37202;BME280;37799;52.390;6.136;2023-02-13T05:30:03;103719.84;;;6.52;100.00
37202;BME280;37799;52.390;6.136;2023-02-13T05:32:28;103715.44;;;6.49;100.00
37202;BME280;37799;52.390;6.136;2023-02-13T05:34:54;103713.66;;;6.48;100.00
37202;BME280;37799;52.390;6.136;2023-02-13T05:37:19;103707.78;;;6.51;100.00
37202;BME280;37799;52.390;6.136;2023-02-13T05:39:44;103711.41;;;6.56;100.00
37202;BME280;37799;52.390;6.136;2023-02-13T05:42:09;103709.63;;;6.55;100.00
37202;BME280;37799;52.390;6.136;2023-02-13T05:44:35;103714.84;;;6.57;100.00
37202;BME280;37799;52.390;6.136;2023-02-13T05:47:00;103712.16;;;6.54;100.00
37202;BME280;37799;52.390;6.136;2023-02-13T05:49:25;103703.56;;;6.53;100.00
37202;BME280;37799;52.390;6.136;2023-02-13T05:51:51;103709.41;;;6.49;100.00
37202;BME280;37799;52.390;6.136;2023-02-13T05:54:16;103709.53;;;6.52;100.00
37202;BME280;37799;52.390;6.136;2023-02-13T05:56:42;103709.44;;;6.50;100.00
37202;BME280;37799;52.390;6.136;2023-02-13T05:59:07;103712.16;;;6.54;100.00
37202;BME280;37799;52.390;6.136;2023-02-13T06:01:33;103712.16;;;6.54;100.00
37202;BME280;37799;52.390;6.136;2023-02-13T06:03:58;103709.69;;;6.57;100.00
37202;BME280;37799;52.390;6.136;2023-02-13T06:06:23;103712.97;;;6.53;100.00
37202;BME280;37799;52.390;6.136;2023-02-13T06:08:49;103719.16;;;6.58;100.00
37202;BME280;37799;52.390;6.136;2023-02-13T06:11:15;103718.28;;;6.57;100.00
37202;BME280;37799;52.390;6.136;2023-02-13T06:13:40;103713.88;;;6.53;100.00
37202;BME280;37799;52.390;6.136;2023-02-13T06:16:09;103722.28;;;6.49;100.00
37202;BME280;37799;52.390;6.136;2023-02-13T06:18:35;103713.56;;;6.45;100.00
37202;BME280;37799;52.390;6.136;2023-02-13T06:21:01;103711.00;;;6.45;100.00
37202;BME280;37799;52.390;6.136;2023-02-13T06:23:27;103716.03;;;6.42;100.00
37202;BME280;37799;52.390;6.136;2023-02-13T06:25:53;103723.75;;;6.42;100.00
37202;BME280;37799;52.390;6.136;2023-02-13T06:28:18;103719.44;;;6.41;100.00
37202;BME280;37799;52.390;6.136;2023-02-13T06:30:44;103725.72;;;6.49;100.00
37202;BME280;37799;52.390;6.136;2023-02-13T06:33:09;103734.25;;;6.48;100.00
37202;BME280;37799;52.390;6.136;2023-02-13T06:35:34;103722.94;;;6.43;100.00
37202;BME280;37799;52.390;6.136;2023-02-13T06:38:00;103733.22;;;6.43;100.00
37202;BME280;37799;52.390;6.136;2023-02-13T06:40:25;103734.81;;;6.40;100.00
37202;BME280;37799;52.390;6.136;2023-02-13T06:42:50;103734.69;;;6.37;100.00
37202;BME280;37799;52.390;6.136;2023-02-13T06:45:16;103738.84;;;6.33;100.00
37202;BME280;37799;52.390;6.136;2023-02-13T06:47:42;103735.44;;;6.34;100.00
37202;BME280;37799;52.390;6.136;2023-02-13T06:50:08;103733.59;;;6.30;100.00
37202;BME280;37799;52.390;6.136;2023-02-13T06:52:34;103740.44;;;6.30;100.00
37202;BME280;37799;52.390;6.136;2023-02-13T06:55:00;103746.50;;;6.32;100.00
37202;BME280;37799;52.390;6.136;2023-02-13T06:57:25;103749.25;;;6.36;100.00
37202;BME280;37799;52.390;6.136;2023-02-13T06:59:51;103745.84;;;6.37;100.00
37202;BME280;37799;52.390;6.136;2023-02-13T07:02:16;103745.84;;;6.37;100.00
37202;BME280;37799;52.390;6.136;2023-02-13T07:04:42;103747.63;;;6.38;100.00
37202;BME280;37799;52.390;6.136;2023-02-13T07:07:07;103744.00;;;6.33;100.00
37202;BME280;37799;52.390;6.136;2023-02-13T07:09:32;103751.00;;;6.37;100.00
37202;BME280;37799;52.390;6.136;2023-02-13T07:12:01;103751.19;;;6.42;100.00
37202;BME280;37799;52.390;6.136;2023-02-13T07:14:27;103755.53;;;6.43;100.00
37202;BME280;37799;52.390;6.136;2023-02-13T07:16:52;103759.91;;;6.45;100.00
37202;BME280;37799;52.390;6.136;2023-02-13T07:19:17;103763.28;;;6.44;100.00
37202;BME280;37799;52.390;6.136;2023-02-13T07:21:43;103765.03;;;6.45;100.00
37202;BME280;37799;52.390;6.136;2023-02-13T07:24:08;103758.97;;;6.43;100.00
37202;BME280;37799;52.390;6.136;2023-02-13T07:26:33;103765.16;;;6.48;100.00
37202;BME280;37799;52.390;6.136;2023-02-13T07:28:59;103769.78;;;6.57;100.00
37202;BME280;37799;52.390;6.136;2023-02-13T07:31:30;103769.88;;;6.60;100.00
37202;BME280;37799;52.390;6.136;2023-02-13T07:33:55;103773.28;;;6.59;100.00
37202;BME280;37799;52.390;6.136;2023-02-13T07:36:20;103768.97;;;6.58;100.00
37202;BME280;37799;52.390;6.136;2023-02-13T07:38:45;103775.91;;;6.61;100.00
37202;BME280;37799;52.390;6.136;2023-02-13T07:41:11;103766.53;;;6.63;100.00
37202;BME280;37799;52.390;6.136;2023-02-13T07:43:36;103771.59;;;6.60;100.00
37202;BME280;37799;52.390;6.136;2023-02-13T07:46:02;103776.97;;;6.66;100.00
37202;BME280;37799;52.390;6.136;2023-02-13T07:48:28;103788.22;;;6.68;100.00
37202;BME280;37799;52.390;6.136;2023-02-13T07:51:04;103772.75;;;6.68;100.00
37202;BME280;37799;52.390;6.136;2023-02-13T07:53:30;103783.38;;;6.77;100.00
37202;BME280;37799;52.390;6.136;2023-02-13T07:55:55;103775.91;;;6.83;100.00
37202;BME280;37799;52.390;6.136;2023-02-13T07:58:20;103785.47;;;6.87;100.00
37202;BME280;37799;52.390;6.136;2023-02-13T08:00:46;103774.59;;;6.94;100.00
37202;BME280;37799;52.390;6.136;2023-02-13T08:03:11;103775.50;;;6.96;100.00
37202;BME280;37799;52.390;6.136;2023-02-13T08:05:37;103781.66;;;7.00;100.00
37202;BME280;37799;52.390;6.136;2023-02-13T08:08:03;103782.66;;;7.03;100.00
37202;BME280;37799;52.390;6.136;2023-02-13T08:10:28;103779.56;;;7.14;100.00
37202;BME280;37799;52.390;6.136;2023-02-13T08:13:13;103783.06;;;7.16;100.00
37202;BME280;37799;52.390;6.136;2023-02-13T08:15:39;103787.63;;;7.23;100.00
37202;BME280;37799;52.390;6.136;2023-02-13T08:18:05;103780.16;;;7.30;100.00
37202;BME280;37799;52.390;6.136;2023-02-13T08:20:31;103787.31;;;7.39;100.00
37202;BME280;37799;52.390;6.136;2023-02-13T08:23:04;103790.19;;;7.47;100.00
37202;BME280;37799;52.390;6.136;2023-02-13T08:25:30;103786.63;;;7.43;100.00
37202;BME280;37799;52.390;6.136;2023-02-13T08:27:55;103786.50;;;7.40;100.00
37202;BME280;37799;52.390;6.136;2023-02-13T08:30:20;103781.72;;;7.51;100.00
37202;BME280;37799;52.390;6.136;2023-02-13T08:32:46;103777.66;;;7.57;100.00
37202;BME280;37799;52.390;6.136;2023-02-13T08:35:11;103783.81;;;7.62;100.00
37202;BME280;37799;52.390;6.136;2023-02-13T08:37:36;103784.13;;;7.72;100.00
37202;BME280;37799;52.390;6.136;2023-02-13T08:40:02;103786.53;;;7.67;100.00
37202;BME280;37799;52.390;6.136;2023-02-13T08:42:27;103782.34;;;7.69;100.00
37202;BME280;37799;52.390;6.136;2023-02-13T08:44:53;103780.88;;;7.77;100.00
37202;BME280;37799;52.390;6.136;2023-02-13T08:47:18;103778.28;;;7.77;100.00
37202;BME280;37799;52.390;6.136;2023-02-13T08:49:43;103771.63;;;7.84;100.00
37202;BME280;37799;52.390;6.136;2023-02-13T08:52:09;103779.53;;;7.88;100.00
37202;BME280;37799;52.390;6.136;2023-02-13T08:54:34;103781.47;;;7.95;100.00
37202;BME280;37799;52.390;6.136;2023-02-13T08:57:03;103777.63;;;8.10;100.00
37202;BME280;37799;52.390;6.136;2023-02-13T08:59:28;103786.28;;;8.12;100.00
37202;BME280;37799;52.390;6.136;2023-02-13T09:01:53;103784.66;;;8.15;100.00
37202;BME280;37799;52.390;6.136;2023-02-13T09:04:19;103788.47;;;8.26;100.00
37202;BME280;37799;52.390;6.136;2023-02-13T09:06:44;103780.84;;;8.31;100.00
37202;BME280;37799;52.390;6.136;2023-02-13T09:09:09;103791.09;;;8.28;100.00
37202;BME280;37799;52.390;6.136;2023-02-13T09:11:35;103788.78;;;8.36;100.00
37202;BME280;37799;52.390;6.136;2023-02-13T09:14:00;103795.19;;;8.48;100.00
37202;BME280;37799;52.390;6.136;2023-02-13T09:16:26;103788.44;;;8.53;100.00
37202;BME280;37799;52.390;6.136;2023-02-13T09:18:51;103789.56;;;8.62;100.00
37202;BME280;37799;52.390;6.136;2023-02-13T09:21:20;103790.59;;;8.68;100.00
37202;BME280;37799;52.390;6.136;2023-02-13T09:23:46;103798.50;;;8.73;100.00
37202;BME280;37799;52.390;6.136;2023-02-13T09:26:13;103804.47;;;8.72;100.00
37202;BME280;37799;52.390;6.136;2023-02-13T09:28:39;103803.59;;;8.71;100.00
37202;BME280;37799;52.390;6.136;2023-02-13T09:31:11;103803.97;;;8.83;100.00
37202;BME280;37799;52.390;6.136;2023-02-13T09:33:39;103804.78;;;8.82;100.00
37202;BME280;37799;52.390;6.136;2023-02-13T09:36:10;103799.63;;;8.82;100.00
37202;BME280;37799;52.390;6.136;2023-02-13T09:38:36;103803.97;;;8.83;100.00
37202;BME280;37799;52.390;6.136;2023-02-13T09:41:06;103805.63;;;8.81;100.00
37202;BME280;37799;52.390;6.136;2023-02-13T09:43:51;103797.97;;;8.84;100.00
37202;BME280;37799;52.390;6.136;2023-02-13T09:46:37;103799.09;;;8.94;100.00
37202;BME280;37799;52.390;6.136;2023-02-13T09:49:11;103798.25;;;8.95;100.00
37202;BME280;37799;52.390;6.136;2023-02-13T09:51:40;103797.28;;;8.90;100.00
37202;BME280;37799;52.390;6.136;2023-02-13T09:54:07;103796.50;;;8.94;100.00
37202;BME280;37799;52.390;6.136;2023-02-13T09:57:02;103801.19;;;9.07;100.00
37202;BME280;37799;52.390;6.136;2023-02-13T10:00:19;103798.00;;;9.16;100.00
37202;BME280;37799;52.390;6.136;2023-02-13T10:16:32;103806.97;;;9.63;100.00
37202;BME280;37799;52.390;6.136;2023-02-13T10:19:25;103806.28;;;9.69;100.00
37202;BME280;37799;52.390;6.136;2023-02-13T10:21:56;103807.97;;;9.67;100.00
37202;BME280;37799;52.390;6.136;2023-02-13T10:24:31;103802.41;;;9.52;100.00
37202;BME280;37799;52.390;6.136;2023-02-13T10:27:03;103800.41;;;9.41;100.00
37202;BME280;37799;52.390;6.136;2023-02-13T10:29:37;103800.13;;;9.64;100.00
37202;BME280;37799;52.390;6.136;2023-02-13T10:32:29;103810.41;;;9.62;100.00
37202;BME280;37799;52.390;6.136;2023-02-13T10:35:01;103803.75;;;9.72;100.00
37202;BME280;37799;52.390;6.136;2023-02-13T10:37:27;103796.53;;;9.59;100.00
37202;BME280;37799;52.390;6.136;2023-02-13T10:39:53;103800.22;;;9.68;100.00
37202;BME280;37799;52.390;6.136;2023-02-13T10:42:35;103793.28;;;9.66;100.00
37202;BME280;37799;52.390;6.136;2023-02-13T10:50:52;103789.50;;;9.89;100.00
37202;BME280;37799;52.390;6.136;2023-02-13T10:58:48;103799.69;;;10.18;100.00
37202;BME280;37799;52.390;6.136;2023-02-13T11:04:10;103786.59;;;10.12;100.00
37202;BME280;37799;52.390;6.136;2023-02-13T11:06:40;103786.91;;;10.24;100.00
37202;BME280;37799;52.390;6.136;2023-02-13T11:09:07;103778.81;;;10.12;100.00
37202;BME280;37799;52.390;6.136;2023-02-13T11:11:35;103779.66;;;10.11;100.00
37202;BME280;37799;52.390;6.136;2023-02-13T11:14:11;103776.97;;;10.42;100.00
37202;BME280;37799;52.390;6.136;2023-02-13T11:16:45;103775.13;;;10.38;100.00
37202;BME280;37799;52.390;6.136;2023-02-13T11:19:39;103777.47;;;10.67;100.00
37202;BME280;37799;52.390;6.136;2023-02-13T11:22:13;103775.53;;;10.56;100.00
37202;BME280;37799;52.390;6.136;2023-02-13T11:24:42;103769.91;;;10.77;100.00
37202;BME280;37799;52.390;6.136;2023-02-13T11:27:14;103772.38;;;10.70;100.00
37202;BME280;37799;52.390;6.136;2023-02-13T11:29:53;103772.16;;;10.60;100.00
37202;BME280;37799;52.390;6.136;2023-02-13T11:32:25;103776.59;;;10.66;100.00
37202;BME280;37799;52.390;6.136;2023-02-13T11:34:51;103762.56;;;10.55;100.00
37202;BME280;37799;52.390;6.136;2023-02-13T11:37:24;103758.81;;;10.83;100.00
37202;BME280;37799;52.390;6.136;2023-02-13T11:39:53;103755.50;;;10.49;100.00
37202;BME280;37799;52.390;6.136;2023-02-13T11:42:33;103756.53;;;10.56;100.00
37202;BME280;37799;52.390;6.136;2023-02-13T11:47:34;103755.19;;;10.75;100.00
37202;BME280;37799;52.390;6.136;2023-02-13T11:50:00;103762.41;;;10.91;100.00
37202;BME280;37799;52.390;6.136;2023-02-13T11:52:35;103763.38;;;10.96;100.00
37202;BME280;37799;52.390;6.136;2023-02-13T11:55:24;103751.75;;;10.76;100.00
37202;BME280;37799;52.390;6.136;2023-02-13T11:58:03;103750.25;;;10.45;100.00
37202;BME280;37799;52.390;6.136;2023-02-13T12:00:45;103753.94;;;10.56;100.00
37202;BME280;37799;52.390;6.136;2023-02-13T12:05:59;103747.94;;;10.58;100.00
37202;BME280;37799;52.390;6.136;2023-02-13T12:08:25;103744.78;;;10.73;100.00
37202;BME280;37799;52.390;6.136;2023-02-13T12:10:51;103742.81;;;10.61;100.00
37202;BME280;37799;52.390;6.136;2023-02-13T12:13:32;103740.63;;;10.81;100.00
37202;BME280;37799;52.390;6.136;2023-02-13T12:16:03;103731.69;;;10.67;100.00
37202;BME280;37799;52.390;6.136;2023-02-13T12:18:37;103733.91;;;10.92;100.00
37202;BME280;37799;52.390;6.136;2023-02-13T12:26:38;103720.38;;;11.07;100.00
37202;BME280;37799;52.390;6.136;2023-02-13T12:29:20;103714.44;;;11.14;100.00
37202;BME280;37799;52.390;6.136;2023-02-13T12:40:01;103707.69;;;10.77;100.00
37202;BME280;37799;52.390;6.136;2023-02-13T12:42:40;103705.28;;;10.85;100.00
37202;BME280;37799;52.390;6.136;2023-02-13T12:47:58;103693.16;;;10.84;100.00
37202;BME280;37799;52.390;6.136;2023-02-13T12:50:28;103694.38;;;11.04;100.00
37202;BME280;37799;52.390;6.136;2023-02-13T12:53:03;103692.88;;;11.18;100.00
37202;BME280;37799;52.390;6.136;2023-02-13T12:58:56;103697.84;;;11.06;100.00
37202;BME280;37799;52.390;6.136;2023-02-13T13:07:35;103693.53;;;10.58;100.00
37202;BME280;37799;52.390;6.136;2023-02-13T13:12:54;103671.06;;;10.57;100.00
37202;BME280;37799;52.390;6.136;2023-02-13T13:18:26;103675.97;;;10.44;100.00
37202;BME280;37799;52.390;6.136;2023-02-13T13:26:37;103671.53;;;10.38;100.00
37202;BME280;37799;52.390;6.136;2023-02-13T13:29:44;103671.97;;;10.61;100.00
37202;BME280;37799;52.390;6.136;2023-02-13T13:32:15;103665.59;;;10.89;100.00
37202;BME280;37799;52.390;6.136;2023-02-13T13:34:41;103655.72;;;11.19;100.00
37202;BME280;37799;52.390;6.136;2023-02-13T13:42:49;103661.91;;;11.82;100.00
37202;BME280;37799;52.390;6.136;2023-02-13T13:50:39;103656.63;;;11.77;100.00
37202;BME280;37799;52.390;6.136;2023-02-13T13:53:07;103654.66;;;11.61;100.00
37202;BME280;37799;52.390;6.136;2023-02-13T13:58:30;103637.28;;;11.57;100.00
37202;BME280;37799;52.390;6.136;2023-02-13T14:03:45;103634.00;;;11.70;100.00
37202;BME280;37799;52.390;6.136;2023-02-13T14:06:16;103633.97;;;11.67;100.00
37202;BME280;37799;52.390;6.136;2023-02-13T14:11:39;103631.16;;;11.50;100.00
37202;BME280;37799;52.390;6.136;2023-02-13T14:17:00;103624.13;;;11.43;100.00
37202;BME280;37799;52.390;6.136;2023-02-13T14:19:32;103615.94;;;11.17;100.00
37202;BME280;37799;52.390;6.136;2023-02-13T14:22:29;103613.47;;;11.25;100.00
37202;BME280;37799;52.390;6.136;2023-02-13T14:25:01;103614.19;;;11.16;100.00
37202;BME280;37799;52.390;6.136;2023-02-13T14:27:33;103611.94;;;10.85;100.00
37202;BME280;37799;52.390;6.136;2023-02-13T14:30:01;103609.13;;;10.71;100.00
37202;BME280;37799;52.390;6.136;2023-02-13T14:32:31;103608.97;;;10.63;100.00
37202;BME280;37799;52.390;6.136;2023-02-13T14:35:05;103602.00;;;10.61;100.00
37202;BME280;37799;52.390;6.136;2023-02-13T14:37:48;103597.25;;;10.84;100.00
37202;BME280;37799;52.390;6.136;2023-02-13T14:42:41;103601.75;;;10.47;100.00
37202;BME280;37799;52.390;6.136;2023-02-13T14:45:16;103596.59;;;10.47;100.00
37202;BME280;37799;52.390;6.136;2023-02-13T14:47:46;103601.69;;;10.43;100.00
37202;BME280;37799;52.390;6.136;2023-02-13T14:50:22;103605.91;;;10.39;100.00
37202;BME280;37799;52.390;6.136;2023-02-13T14:52:49;103593.19;;;10.51;100.00
37202;BME280;37799;52.390;6.136;2023-02-13T14:55:23;103597.47;;;10.49;100.00
37202;BME280;37799;52.390;6.136;2023-02-13T14:58:41;103597.19;;;10.32;100.00
37202;BME280;37799;52.390;6.136;2023-02-13T15:00:56;103596.34;;;10.35;100.00
37202;BME280;37799;52.390;6.136;2023-02-13T15:03:46;103594.44;;;10.26;100.00
37202;BME280;37799;52.390;6.136;2023-02-13T15:06:34;103598.94;;;10.35;100.00
37202;BME280;37799;52.390;6.136;2023-02-13T15:09:04;103594.22;;;10.59;100.00
37202;BME280;37799;52.390;6.136;2023-02-13T15:11:41;103601.66;;;10.91;100.00
37202;BME280;37799;52.390;6.136;2023-02-13T15:14:21;103600.53;;;11.27;100.00